createdAt,value
2018-05-31T00:02:16.678Z,8.68
2018-05-31T00:04:44.179Z,5.15
2018-05-31T00:07:11.674Z,5.40
2018-05-31T00:09:39.975Z,5.25
2018-05-31T00:12:07.493Z,6.97
2018-05-31T00:14:34.996Z,7.15
2018-05-31T00:17:02.527Z,8.52
2018-05-31T00:19:30.029Z,6.20
2018-05-31T00:21:57.531Z,5.85
2018-05-31T00:24:25.085Z,5.87
2018-05-31T00:26:52.588Z,5.70
2018-05-31T00:29:20.102Z,8.20
2018-05-31T00:31:47.643Z,5.57
2018-05-31T00:34:15.137Z,5.40
2018-05-31T00:36:42.630Z,8.65
2018-05-31T00:39:10.147Z,7.28
2018-05-31T00:41:37.656Z,7.43
2018-05-31T00:44:05.150Z,7.07
2018-05-31T00:46:32.695Z,6.87
2018-05-31T00:49:00.207Z,6.20
2018-05-31T00:51:27.698Z,7.50
2018-05-31T00:53:55.226Z,7.85
2018-05-31T00:56:22.719Z,8.98
2018-05-31T00:58:50.225Z,6.05
2018-05-31T01:01:17.746Z,7.80
2018-05-31T01:03:45.251Z,6.97
2018-05-31T01:06:12.742Z,6.87
2018-05-31T01:08:40.286Z,8.15
2018-05-31T01:11:07.786Z,6.00
2018-05-31T01:13:35.290Z,5.82
2018-05-31T01:16:02.806Z,6.00
2018-05-31T01:18:30.324Z,6.75
2018-05-31T01:20:57.831Z,5.53
2018-05-31T01:23:25.351Z,8.48
2018-05-31T01:25:52.854Z,5.12
2018-05-31T01:28:20.358Z,7.00
2018-05-31T01:30:47.901Z,5.45
2018-05-31T01:33:15.403Z,6.43
2018-05-31T01:35:42.904Z,7.90
2018-05-31T01:38:22.366Z,5.03
2018-05-31T01:40:49.874Z,5.45
2018-05-31T01:43:18.143Z,6.72
2018-05-31T01:45:45.663Z,6.70
2018-05-31T01:48:13.161Z,9.98
2018-05-31T01:50:41.430Z,5.03
2018-05-31T01:53:08.974Z,6.53
2018-05-31T01:55:36.476Z,7.53
2018-05-31T01:58:04.739Z,6.75
2018-05-31T02:00:32.291Z,6.03
2018-05-31T02:02:59.793Z,6.18
2018-05-31T02:05:27.298Z,5.70
2018-05-31T02:07:54.811Z,7.03
2018-05-31T02:10:22.319Z,6.50
2018-05-31T02:12:49.818Z,8.23
2018-05-31T02:15:17.339Z,8.38
2018-05-31T02:17:44.834Z,5.93
2018-05-31T02:20:13.091Z,8.95
2018-05-31T02:22:40.644Z,6.87
2018-05-31T02:25:08.134Z,6.72
2018-05-31T02:27:36.410Z,5.72
2018-05-31T02:30:03.939Z,7.65
2018-05-31T02:32:31.434Z,6.55
2018-05-31T02:34:59.694Z,4.80
2018-05-31T02:37:27.198Z,4.35
2018-05-31T02:39:54.715Z,4.70
2018-05-31T02:42:22.202Z,5.30
2018-05-31T02:44:50.504Z,5.32
2018-05-31T02:47:18.004Z,5.20
2018-05-31T02:49:45.499Z,6.47
2018-05-31T02:52:13.050Z,4.70
2018-05-31T02:54:41.302Z,6.18
2018-05-31T02:57:08.798Z,5.45
2018-05-31T02:59:37.071Z,5.37
2018-05-31T03:02:04.575Z,6.25
2018-05-31T03:04:32.084Z,5.23
2018-05-31T03:07:00.370Z,6.03
2018-05-31T03:09:33.052Z,7.37
2018-05-31T03:12:06.083Z,4.95
2018-05-31T03:14:36.250Z,4.80
2018-05-31T03:17:06.958Z,4.65
2018-05-31T03:19:37.811Z,5.22
2018-05-31T03:22:09.911Z,4.47
2018-05-31T03:24:39.582Z,6.97
2018-05-31T03:27:12.307Z,4.90
2018-05-31T03:29:42.603Z,7.30
2018-05-31T03:32:13.826Z,5.23
2018-05-31T03:34:41.514Z,6.40
2018-05-31T03:37:09.011Z,5.13
2018-05-31T03:39:36.559Z,5.12
2018-05-31T03:42:04.056Z,4.37
2018-05-31T03:44:31.548Z,5.87
2018-05-31T03:46:59.098Z,4.40
2018-05-31T03:49:26.606Z,5.43
2018-05-31T03:51:54.122Z,4.85
2018-05-31T03:54:21.644Z,4.15
2018-05-31T03:56:49.156Z,6.03
2018-05-31T03:59:16.654Z,3.20
2018-05-31T04:01:44.202Z,3.67
2018-05-31T04:04:12.475Z,4.90
2018-05-31T04:06:39.980Z,5.28
2018-05-31T04:09:07.517Z,4.07
2018-05-31T04:11:35.031Z,3.85
2018-05-31T04:14:02.546Z,5.97
2018-05-31T04:16:30.074Z,6.97
2018-05-31T04:18:57.614Z,3.40
2018-05-31T04:25:59.763Z,2.83
2018-05-31T04:28:27.272Z,4.03
2018-05-31T04:30:54.778Z,3.35
2018-05-31T04:33:22.310Z,4.20
2018-05-31T04:35:49.809Z,3.15
2018-05-31T04:38:17.322Z,4.87
2018-05-31T04:40:44.986Z,3.78
2018-05-31T04:43:12.495Z,4.57
2018-05-31T04:45:39.995Z,3.78
2018-05-31T04:48:07.562Z,5.53
2018-05-31T04:50:35.055Z,4.53
2018-05-31T04:53:02.563Z,2.50
2018-05-31T04:55:30.103Z,3.47
2018-05-31T04:57:57.610Z,2.33
2018-05-31T05:00:25.115Z,3.20
2018-05-31T05:02:52.671Z,2.42
2018-05-31T05:05:20.938Z,4.62
2018-05-31T05:07:49.206Z,3.65
2018-05-31T05:10:16.809Z,3.55
2018-05-31T05:12:44.310Z,3.00
2018-05-31T05:15:11.814Z,2.47
2018-05-31T05:17:39.346Z,3.90
2018-05-31T05:20:06.842Z,3.05
2018-05-31T05:22:34.336Z,5.22
2018-05-31T05:25:01.900Z,3.53
2018-05-31T05:27:29.402Z,4.62
2018-05-31T05:29:56.898Z,2.50
2018-05-31T05:32:24.478Z,3.17
2018-05-31T05:34:52.062Z,2.87
2018-05-31T05:37:19.588Z,3.15
2018-05-31T05:39:47.130Z,4.47
2018-05-31T05:42:14.643Z,3.97
2018-05-31T05:44:42.159Z,3.10
2018-05-31T05:47:09.707Z,3.53
2018-05-31T05:49:37.220Z,3.75
2018-05-31T05:52:04.723Z,3.00
2018-05-31T05:54:32.309Z,3.58
2018-05-31T05:56:59.818Z,2.08
2018-05-31T05:59:27.322Z,2.97
2018-05-31T06:01:54.909Z,3.80
2018-05-31T06:04:22.406Z,3.60
2018-05-31T06:06:49.916Z,1.83
2018-05-31T06:09:17.470Z,3.20
2018-05-31T06:11:44.987Z,4.55
2018-05-31T06:14:12.483Z,4.05
2018-05-31T06:16:40.089Z,3.42
2018-05-31T06:19:07.543Z,2.67
2018-05-31T06:21:35.411Z,2.17
2018-05-31T06:24:03.012Z,3.90
2018-05-31T06:26:31.377Z,1.80
2018-05-31T06:28:58.792Z,5.47
2018-05-31T06:31:26.334Z,5.43
2018-05-31T06:33:53.845Z,3.72
2018-05-31T06:36:21.338Z,3.17
2018-05-31T06:38:48.905Z,2.70
2018-05-31T06:41:16.403Z,4.40
2018-05-31T06:43:43.919Z,3.70
2018-05-31T06:46:11.463Z,5.28
2018-05-31T06:48:38.958Z,4.95
2018-05-31T06:51:06.453Z,2.95
2018-05-31T06:53:33.995Z,3.37
2018-05-31T06:56:01.499Z,6.65
2018-05-31T06:58:28.991Z,3.42
2018-05-31T07:00:57.332Z,4.32
2018-05-31T07:03:24.827Z,1.80
2018-05-31T07:05:52.326Z,4.68
2018-05-31T07:08:19.856Z,5.43
2018-05-31T07:10:47.371Z,4.05
2018-05-31T07:13:14.870Z,5.10
2018-05-31T07:15:42.412Z,5.07
2018-05-31T07:18:09.907Z,2.78
2018-05-31T07:20:38.171Z,2.25
2018-05-31T07:23:06.908Z,4.90
2018-05-31T07:25:34.406Z,3.78
2018-05-31T07:28:01.916Z,1.87
2018-05-31T07:30:29.483Z,4.07
2018-05-31T07:32:56.982Z,3.92
2018-05-31T07:35:24.497Z,5.22
2018-05-31T07:37:52.023Z,2.08
2018-05-31T07:40:20.286Z,3.00
2018-05-31T07:42:47.791Z,6.30
2018-05-31T07:45:15.323Z,1.80
2018-05-31T07:47:43.615Z,1.95
2018-05-31T07:50:11.888Z,4.03
2018-05-31T07:52:39.467Z,3.83
2018-05-31T07:55:06.970Z,4.37
2018-05-31T07:57:34.471Z,3.85
2018-05-31T08:00:02.801Z,6.87
2018-05-31T08:02:30.302Z,3.50
2018-05-31T08:04:58.582Z,2.55
2018-05-31T08:07:26.143Z,3.72
2018-05-31T08:09:54.461Z,4.15
2018-05-31T08:12:21.963Z,3.95
2018-05-31T08:14:49.519Z,4.00
2018-05-31T08:17:17.124Z,3.20
2018-05-31T08:19:44.627Z,2.55
2018-05-31T08:22:12.177Z,4.18
2018-05-31T08:24:39.687Z,3.00
2018-05-31T08:27:07.280Z,2.20
2018-05-31T08:29:34.818Z,6.87
2018-05-31T08:32:03.125Z,2.30
2018-05-31T08:34:30.626Z,1.80
2018-05-31T08:36:58.142Z,5.25
2018-05-31T08:39:25.635Z,3.50
2018-05-31T08:41:53.130Z,3.05
2018-05-31T08:44:20.666Z,6.82
2018-05-31T08:46:48.158Z,1.85
2018-05-31T08:49:16.420Z,3.75
2018-05-31T08:51:43.988Z,3.22
2018-05-31T08:54:11.490Z,3.42
2018-05-31T08:56:38.985Z,3.47
2018-05-31T08:59:06.509Z,3.40
2018-05-31T09:01:34.009Z,5.28
2018-05-31T09:04:01.510Z,3.03
2018-05-31T09:06:29.804Z,2.10
2018-05-31T09:08:57.306Z,4.28
2018-05-31T09:11:24.798Z,4.22
2018-05-31T09:13:52.378Z,4.37
2018-05-31T09:16:19.895Z,3.62
2018-05-31T09:18:47.387Z,5.35
2018-05-31T09:21:15.696Z,4.57
2018-05-31T09:23:43.202Z,5.70
2018-05-31T09:26:10.691Z,2.78
2018-05-31T09:28:39.098Z,1.62
2018-05-31T09:31:06.502Z,2.60
2018-05-31T09:33:34.511Z,2.83
2018-05-31T09:36:02.124Z,2.03
2018-05-31T09:38:29.621Z,3.70
2018-05-31T09:40:57.118Z,3.00
2018-05-31T09:43:24.639Z,2.87
2018-05-31T09:45:52.898Z,5.30
2018-05-31T09:48:20.390Z,2.78
2018-05-31T09:50:47.930Z,2.42
2018-05-31T09:53:15.428Z,4.47
2018-05-31T09:55:42.934Z,3.90
2018-05-31T09:58:10.586Z,3.25
2018-05-31T10:00:38.087Z,3.25
2018-05-31T10:03:06.358Z,3.00
2018-05-31T10:05:33.940Z,2.55
2018-05-31T10:08:01.435Z,3.92
2018-05-31T10:10:28.939Z,2.92
2018-05-31T10:12:57.255Z,1.65
2018-05-31T10:15:24.751Z,2.72
2018-05-31T10:17:52.246Z,2.92
2018-05-31T10:20:20.561Z,3.22
2018-05-31T10:22:48.054Z,1.92
2018-05-31T10:25:15.551Z,1.17
2018-05-31T10:27:43.887Z,1.75
2018-05-31T10:30:11.477Z,2.87
2018-05-31T10:32:38.959Z,2.20
2018-05-31T10:35:06.475Z,1.15
2018-05-31T10:37:33.971Z,1.90
2018-05-31T10:40:02.235Z,5.05
2018-05-31T10:42:29.778Z,2.65
2018-05-31T10:44:57.270Z,2.80
2018-05-31T10:47:25.522Z,2.03
2018-05-31T10:49:53.036Z,2.80
2018-05-31T10:52:20.543Z,2.28
2018-05-31T10:54:48.033Z,2.25
2018-05-31T10:57:15.629Z,1.67
2018-05-31T10:59:43.119Z,1.33
2018-05-31T11:02:10.610Z,3.17
2018-05-31T11:04:38.142Z,1.80
2018-05-31T11:07:05.626Z,1.33
2018-05-31T11:09:33.116Z,2.80
2018-05-31T11:12:00.634Z,2.67
2018-05-31T11:14:28.126Z,3.03
2018-05-31T11:16:56.375Z,1.00
2018-05-31T11:19:23.894Z,2.50
2018-05-31T11:21:51.383Z,1.02
2018-05-31T11:24:18.991Z,2.05
2018-05-31T11:26:46.535Z,4.35
2018-05-31T11:29:14.074Z,4.50
2018-05-31T11:31:41.553Z,1.73
2018-05-31T11:34:09.835Z,2.03
2018-05-31T11:36:38.094Z,3.83
2018-05-31T11:39:05.589Z,1.15
2018-05-31T11:41:33.203Z,0.85
2018-05-31T11:44:00.665Z,2.15
2018-05-31T11:53:11.326Z,2.10
2018-05-31T11:55:38.815Z,2.78
2018-05-31T11:58:06.306Z,1.40
2018-05-31T12:00:33.939Z,2.37
2018-05-31T12:03:02.163Z,1.40
2018-05-31T12:05:29.658Z,1.98
2018-05-31T12:07:57.812Z,2.05
2018-05-31T12:10:26.071Z,2.83
2018-05-31T12:12:53.562Z,1.77
2018-05-31T12:15:21.099Z,0.95
2018-05-31T12:17:48.590Z,1.83
2018-05-31T12:20:16.082Z,3.33
2018-05-31T12:22:43.643Z,1.00
2018-05-31T12:25:11.138Z,0.95
2018-05-31T12:27:38.621Z,0.90
2018-05-31T12:30:06.135Z,2.95
2018-05-31T12:32:33.622Z,1.65
2018-05-31T12:35:01.122Z,1.92
2018-05-31T12:37:28.659Z,1.35
2018-05-31T12:39:56.146Z,1.95
2018-05-31T12:42:23.642Z,1.08
2018-05-31T12:44:51.214Z,1.48
2018-05-31T12:47:18.702Z,2.33
2018-05-31T12:49:46.969Z,2.22
2018-05-31T12:52:14.507Z,2.28
2018-05-31T12:54:41.995Z,1.92
2018-05-31T12:57:10.246Z,0.88
2018-05-31T12:59:37.838Z,2.85
2018-05-31T13:02:06.093Z,1.92
2018-05-31T13:04:33.596Z,1.30
2018-05-31T13:07:01.128Z,1.87
2018-05-31T13:09:29.382Z,1.83
2018-05-31T13:11:59.328Z,3.15
2018-05-31T13:14:26.854Z,1.73
2018-05-31T13:16:54.349Z,2.78
2018-05-31T13:19:22.610Z,1.25
2018-05-31T13:21:50.122Z,1.95
2018-05-31T13:24:17.610Z,1.05
2018-05-31T13:26:45.106Z,2.08
2018-05-31T13:29:13.426Z,2.40
2018-05-31T13:31:40.912Z,1.17
2018-05-31T13:34:08.402Z,0.88
2018-05-31T13:36:36.711Z,1.42
2018-05-31T13:39:06.368Z,0.95
2018-05-31T13:41:33.855Z,2.05
2018-05-31T13:44:02.978Z,1.83
2018-05-31T13:46:30.471Z,1.73
2018-05-31T13:48:57.958Z,2.50
2018-05-31T13:51:25.479Z,1.92
2018-05-31T13:53:53.738Z,2.20
2018-05-31T13:56:21.226Z,3.53
2018-05-31T13:58:48.756Z,1.15
2018-05-31T14:01:16.247Z,1.77
2018-05-31T14:03:43.742Z,2.15
2018-05-31T14:06:11.310Z,1.83
2018-05-31T14:08:38.804Z,2.47
2018-05-31T14:11:06.302Z,1.65
2018-05-31T14:13:33.819Z,1.33
2018-05-31T14:16:01.307Z,2.60
2018-05-31T14:18:28.799Z,2.33
2018-05-31T14:20:56.331Z,1.70
2018-05-31T14:23:23.819Z,1.00
2018-05-31T14:25:51.310Z,0.90
2018-05-31T14:28:18.851Z,1.12
2018-05-31T14:30:46.339Z,1.75
2018-05-31T14:33:13.830Z,2.00
2018-05-31T14:35:41.415Z,1.92
2018-05-31T14:38:08.911Z,0.80
2018-05-31T14:40:37.162Z,1.35
2018-05-31T14:43:04.733Z,2.30
2018-05-31T14:45:32.203Z,2.70
2018-05-31T14:47:59.693Z,1.50
2018-05-31T14:50:27.226Z,2.40
2018-05-31T14:52:54.713Z,1.00
2018-05-31T14:55:22.244Z,2.85
2018-05-31T14:57:50.548Z,1.98
2018-05-31T15:00:18.111Z,2.12
2018-05-31T15:02:45.610Z,2.55
2018-05-31T15:05:13.183Z,1.52
2018-05-31T15:07:40.679Z,1.70
2018-05-31T15:10:08.257Z,2.42
2018-05-31T15:12:35.790Z,1.12
2018-05-31T15:15:04.042Z,2.78
2018-05-31T15:17:31.525Z,1.17
2018-05-31T15:19:59.106Z,1.45
2018-05-31T15:22:26.602Z,1.98
2018-05-31T15:24:54.087Z,1.52
2018-05-31T15:27:21.651Z,1.37
2018-05-31T15:29:49.149Z,1.42
2018-05-31T15:32:17.405Z,1.85
2018-05-31T15:34:44.942Z,0.80
2018-05-31T15:37:12.442Z,3.25
2018-05-31T15:39:39.946Z,4.00
2018-05-31T15:42:07.489Z,1.37
2018-05-31T15:44:34.991Z,1.73
2018-05-31T15:47:02.530Z,1.70
2018-05-31T15:49:30.062Z,0.93
2018-05-31T15:51:57.586Z,1.10
2018-05-31T15:54:25.558Z,0.75
2018-05-31T15:56:53.072Z,2.70
2018-05-31T15:59:20.566Z,2.25
2018-05-31T16:01:48.066Z,3.25
2018-05-31T16:04:15.653Z,4.07
2018-05-31T16:06:43.225Z,1.80
2018-05-31T16:09:10.722Z,1.60
2018-05-31T16:11:38.260Z,1.12
2018-05-31T16:14:05.755Z,1.48
2018-05-31T16:16:34.027Z,1.15
2018-05-31T16:19:01.668Z,2.05
2018-05-31T16:21:29.180Z,1.77
2018-05-31T16:23:56.723Z,2.40
2018-05-31T16:26:25.094Z,3.45
2018-05-31T16:28:52.596Z,1.00
2018-05-31T16:31:20.778Z,1.17
2018-05-31T16:33:48.679Z,1.95
2018-05-31T16:36:16.200Z,1.45
2018-05-31T16:38:43.701Z,2.95
2018-05-31T16:41:11.261Z,1.85
2018-05-31T16:43:38.757Z,2.47
2018-05-31T16:46:07.015Z,3.12
2018-05-31T16:48:34.574Z,2.08
2018-05-31T16:51:02.076Z,1.85
2018-05-31T16:53:29.598Z,1.42
2018-05-31T16:55:57.263Z,3.12
2018-05-31T16:58:24.774Z,3.22
2018-05-31T17:00:52.270Z,4.15
2018-05-31T17:03:19.811Z,2.15
2018-05-31T17:05:47.298Z,1.90
2018-05-31T17:08:14.790Z,1.73
2018-05-31T17:10:42.306Z,1.45
2018-05-31T17:13:09.795Z,2.25
2018-05-31T17:15:38.051Z,5.00
2018-05-31T17:18:05.559Z,3.72
2018-05-31T17:20:33.042Z,1.17
2018-05-31T17:23:00.534Z,1.35
2018-05-31T17:25:28.127Z,2.95
2018-05-31T17:27:55.613Z,1.60
2018-05-31T17:30:23.103Z,1.12
2018-05-31T17:32:50.802Z,2.65
2018-05-31T17:35:24.359Z,1.33
2018-05-31T17:37:51.912Z,2.80
2018-05-31T17:40:19.431Z,2.58
2018-05-31T17:42:48.508Z,1.25
2018-05-31T17:45:16.075Z,1.58
2018-05-31T17:47:43.603Z,2.83
2018-05-31T17:50:11.268Z,1.95
2018-05-31T17:52:38.794Z,1.60
2018-05-31T17:55:06.305Z,1.95
2018-05-31T17:57:33.799Z,2.50
2018-05-31T18:00:01.323Z,2.40
2018-05-31T18:02:28.810Z,2.37
2018-05-31T18:04:57.134Z,1.73
2018-05-31T18:07:24.700Z,3.78
2018-05-31T18:09:52.278Z,2.55
2018-05-31T18:12:19.766Z,3.08
2018-05-31T18:14:47.327Z,2.62
2018-05-31T18:17:14.816Z,1.17
2018-05-31T18:19:43.071Z,3.17
2018-05-31T18:22:10.611Z,2.08
2018-05-31T18:24:38.285Z,1.80
2018-05-31T18:27:05.783Z,1.95
2018-05-31T18:29:33.351Z,2.33
2018-05-31T18:32:00.839Z,3.42
2018-05-31T18:34:28.340Z,1.98
2018-05-31T18:36:56.047Z,2.42
2018-05-31T18:39:23.558Z,1.20
2018-05-31T18:41:51.051Z,3.00
2018-05-31T18:44:20.231Z,2.30
2018-05-31T18:46:48.503Z,1.58
2018-05-31T18:49:16.000Z,1.75
2018-05-31T18:51:43.542Z,2.83
2018-05-31T18:54:11.808Z,1.85
2018-05-31T18:56:39.306Z,2.35
2018-05-31T18:59:06.831Z,1.20
2018-05-31T19:01:35.109Z,4.65
2018-05-31T19:04:02.600Z,2.25
2018-05-31T19:06:30.179Z,2.55
2018-05-31T19:08:57.670Z,2.50
2018-05-31T19:11:25.163Z,2.03
2018-05-31T19:13:57.687Z,1.50
2018-05-31T19:16:25.182Z,2.55
2018-05-31T19:18:58.254Z,2.30
2018-05-31T19:21:25.790Z,1.40
2018-05-31T19:23:53.303Z,4.32
2018-05-31T19:26:21.574Z,1.08
2018-05-31T19:28:49.094Z,1.67
2018-05-31T19:31:16.591Z,1.80
